Fannin, Texas
Current Conditions -  °F | °C
As of 6:51 PM on Friday 24 Oct 2014 (Local Time) from KVCT Reporting Station
Clear Clear  
Wind Chill: 76°   Ceiling: Unl
Heat Index: 76°   Visibility: 10mi
Dew Point: 57°   Wind: 7mph
Humidity: 52%   Direction: 90°E
Pressure: 30.09"   Gusts: NA
Location:  28.7°N, 97.24°W
Report Text: KVCT 242351Z 09006KT 10SM CLR 24/14 A3009 RMK AO2 SLP186 T02440139 10317 20244 53003
Loading
Personal Weather Stations






























Interactive Weather Map
Tropical Storm Tracking
New forecast layout! Learn more

10-Day Weather Forecast

Advertisements
Track Severe Weather on mobile